Time;durP1;ratioP1;P1;durP2;ratioP2;P2;SDS_P1;SDS_P2;PMS_P1;PMS_P2;Temp;Humidity;BMP_temperature;BMP_pressure;BME280_temperature;BME280_humidity;BME280_pressure;Samples;Min_cycle;Max_cycle;Signal;HPM_P1;HPM_P2
2021/08/12 00:01:07;;;;;;;;;;;14.80;99.90;;;;;;5031577;28;20370;-77
2021/08/12 00:03:33;;;;;;;;;;;14.70;99.90;;;;;;5031677;28;19960;-77
2021/08/12 00:05:59;;;;;;;;;;;14.70;99.90;;;;;;5031616;28;19916;-77
2021/08/12 00:08:24;;;;;;;;;;;14.70;99.90;;;;;;5031461;28;20377;-77
2021/08/12 00:10:51;;;;;;;;;;;14.70;99.90;;;;;;5031280;28;20311;-77
2021/08/12 00:13:18;;;;;;;;;;;14.60;99.90;;;;;;5031572;28;19909;-77
2021/08/12 00:15:44;;;;;;;;;;;14.60;99.90;;;;;;5031404;28;20210;-77
2021/08/12 00:18:09;;;;;;;;;;;14.50;99.90;;;;;;5031086;28;19909;-77
2021/08/12 00:20:35;;;;;;;;;;;14.50;99.90;;;;;;5031334;28;19949;-77
2021/08/12 00:23:00;;;;;;;;;;;14.50;99.90;;;;;;5031419;28;19967;-77
2021/08/12 00:25:26;;;;;;;;;;;14.50;99.90;;;;;;5031310;28;19963;-77
2021/08/12 00:27:51;;;;;;;;;;;14.50;99.90;;;;;;5030011;28;20290;-77
2021/08/12 00:30:17;;;;;;;;;;;14.40;99.90;;;;;;5030681;28;19987;-77
2021/08/12 00:32:42;;;;;;;;;;;14.40;99.90;;;;;;5031184;28;19917;-77
2021/08/12 00:35:08;;;;;;;;;;;14.40;99.90;;;;;;5031272;28;19917;-77
2021/08/12 00:37:34;;;;;;;;;;;14.40;99.90;;;;;;5031067;28;19917;-77
2021/08/12 00:39:59;;;;;;;;;;;14.40;99.90;;;;;;5031038;28;19909;-77
2021/08/12 00:42:25;;;;;;;;;;;14.40;99.90;;;;;;5031155;28;20291;-77
2021/08/12 00:44:50;;;;;;;;;;;14.40;99.90;;;;;;5031214;28;19913;-77
2021/08/12 00:47:16;;;;;;;;;;;14.40;99.90;;;;;;5032435;28;19913;-77
2021/08/12 00:49:41;;;;;;;;;;;14.40;99.90;;;;;;5035138;28;19909;-77
2021/08/12 00:52:09;;;;;;;;;;;14.40;99.90;;;;;;5035121;28;19916;-77
2021/08/12 00:54:36;;;;;;;;;;;14.30;99.90;;;;;;5035441;28;19955;-77
2021/08/12 00:57:03;;;;;;;;;;;14.40;99.90;;;;;;5034805;28;19917;-77
2021/08/12 00:59:34;;;;;;;;;;;14.40;99.90;;;;;;5034830;28;20401;-77
2021/08/12 01:01:59;;;;;;;;;;;14.40;99.90;;;;;;5034779;28;19956;-77
2021/08/12 01:04:25;;;;;;;;;;;14.40;99.90;;;;;;5017150;28;19945;-77
2021/08/12 01:06:52;;;;;;;;;;;14.40;99.90;;;;;;5034618;28;19914;-77
2021/08/12 01:09:44;;;;;;;;;;;14.40;99.90;;;;;;5034966;28;19909;-77
2021/08/12 01:12:29;;;;;;;;;;;14.40;99.90;;;;;;5013994;28;20358;-77
2021/08/12 01:14:57;;;;;;;;;;;14.30;99.90;;;;;;5034819;28;20449;-77
2021/08/12 01:17:24;;;;;;;;;;;14.30;99.90;;;;;;5034277;28;19940;-77
2021/08/12 01:20:05;;;;;;;;;;;14.30;99.90;;;;;;5016905;28;19999;-77
2021/08/12 01:22:32;;;;;;;;;;;14.20;99.90;;;;;;5034440;28;19913;-77
2021/08/12 01:25:00;;;;;;;;;;;14.20;99.90;;;;;;5034545;28;19960;-77
2021/08/12 01:27:27;;;;;;;;;;;14.20;99.90;;;;;;5033961;28;19940;-77
2021/08/12 01:29:58;;;;;;;;;;;14.10;99.90;;;;;;5033922;28;19913;-77
2021/08/12 01:32:39;;;;;;;;;;;14.10;99.90;;;;;;5016754;28;20420;-77
2021/08/12 01:35:06;;;;;;;;;;;14.00;99.90;;;;;;5034251;28;19910;-77
2021/08/12 01:37:39;;;;;;;;;;;14.00;99.90;;;;;;5033073;28;19910;-77
2021/08/12 01:40:07;;;;;;;;;;;14.00;99.90;;;;;;5033986;28;19948;-77
2021/08/12 01:42:34;;;;;;;;;;;14.00;99.90;;;;;;5034389;28;19915;-77
2021/08/12 01:44:59;;;;;;;;;;;13.90;99.90;;;;;;5034293;28;19914;-77
2021/08/12 01:47:25;;;;;;;;;;;13.90;99.90;;;;;;5033508;28;20010;-77
2021/08/12 01:49:52;;;;;;;;;;;13.90;99.90;;;;;;5033050;28;19917;-77
2021/08/12 01:52:18;;;;;;;;;;;13.80;99.90;;;;;;5034000;28;19948;-77
2021/08/12 01:54:44;;;;;;;;;;;13.90;99.90;;;;;;5033759;28;19955;-78
2021/08/12 01:57:10;;;;;;;;;;;13.90;99.90;;;;;;5032576;28;19909;-77
2021/08/12 01:59:37;;;;;;;;;;;13.80;99.90;;;;;;5033628;28;20063;-77
2021/08/12 02:02:03;;;;;;;;;;;13.80;99.90;;;;;;5033604;28;19909;-77
2021/08/12 02:04:30;;;;;;;;;;;13.80;99.90;;;;;;5033556;28;19913;-77
2021/08/12 02:06:56;;;;;;;;;;;13.80;99.90;;;;;;5033079;28;19932;-77
2021/08/12 02:09:21;;;;;;;;;;;13.80;99.90;;;;;;5033341;28;20358;-77
2021/08/12 02:11:47;;;;;;;;;;;13.80;99.90;;;;;;5033392;28;19921;-77
2021/08/12 02:14:13;;;;;;;;;;;13.80;99.90;;;;;;5033453;28;20328;-77
2021/08/12 02:16:39;;;;;;;;;;;13.70;99.90;;;;;;5033015;28;20328;-77
2021/08/12 02:19:05;;;;;;;;;;;13.70;99.90;;;;;;5033453;28;19917;-77
2021/08/12 02:21:34;;;;;;;;;;;13.70;99.90;;;;;;5033397;28;19924;-77
2021/08/12 02:24:02;;;;;;;;;;;13.60;99.90;;;;;;5033381;28;19909;-77
2021/08/12 02:26:36;;;;;;;;;;;13.60;99.90;;;;;;5033128;28;20317;-77
2021/08/12 02:29:01;;;;;;;;;;;13.70;99.90;;;;;;5033710;28;19913;-77
2021/08/12 02:31:28;;;;;;;;;;;13.60;99.90;;;;;;5032942;28;19928;-77
2021/08/12 02:33:54;;;;;;;;;;;13.60;99.90;;;;;;5033149;28;19955;-77
2021/08/12 02:36:19;;;;;;;;;;;13.60;99.90;;;;;;5032773;28;20649;-77
2021/08/12 02:38:46;;;;;;;;;;;13.60;99.90;;;;;;5032609;28;19976;-77
2021/08/12 02:41:17;;;;;;;;;;;13.60;99.90;;;;;;5032890;28;19909;-77
2021/08/12 02:43:43;;;;;;;;;;;13.60;99.90;;;;;;5015130;28;19909;-77
2021/08/12 02:46:09;;;;;;;;;;;13.60;99.90;;;;;;5032467;28;19910;-77
2021/08/12 02:48:36;;;;;;;;;;;13.60;99.90;;;;;;5032967;28;20358;-77
2021/08/12 02:51:03;;;;;;;;;;;13.50;99.90;;;;;;5032682;28;19913;-77
2021/08/12 02:53:29;;;;;;;;;;;13.50;99.90;;;;;;5032664;28;20054;-77
2021/08/12 02:55:55;;;;;;;;;;;13.50;99.90;;;;;;5032756;28;19910;-77
2021/08/12 02:58:22;;;;;;;;;;;13.40;99.90;;;;;;5014435;28;20353;-77
2021/08/12 03:00:48;;;;;;;;;;;13.40;99.90;;;;;;5032632;28;19909;-76
2021/08/12 03:03:15;;;;;;;;;;;13.40;99.90;;;;;;5032572;28;20289;-77
2021/08/12 03:05:41;;;;;;;;;;;13.30;99.90;;;;;;5032689;28;19913;-77
2021/08/12 03:08:12;;;;;;;;;;;13.30;99.90;;;;;;5031895;28;20398;-77
2021/08/12 03:10:38;;;;;;;;;;;13.30;99.90;;;;;;5031541;28;20271;-77
2021/08/12 03:13:04;;;;;;;;;;;13.30;99.90;;;;;;5032433;28;20456;-77
2021/08/12 03:15:30;;;;;;;;;;;13.30;99.90;;;;;;5032313;28;19909;-77
2021/08/12 03:17:55;;;;;;;;;;;13.30;99.90;;;;;;5031909;28;19917;-77
2021/08/12 03:20:25;;;;;;;;;;;13.20;99.90;;;;;;5032230;28;19920;-77
2021/08/12 03:22:50;;;;;;;;;;;13.20;99.90;;;;;;5032255;28;19920;-77
2021/08/12 03:25:16;;;;;;;;;;;13.20;99.90;;;;;;5032217;28;19909;-77
2021/08/12 03:27:41;;;;;;;;;;;13.10;99.90;;;;;;5031702;28;19913;-76
2021/08/12 03:30:07;;;;;;;;;;;13.10;99.90;;;;;;5031942;28;20251;-77
2021/08/12 03:32:32;;;;;;;;;;;13.10;99.90;;;;;;5032116;28;19913;-77
2021/08/12 03:34:58;;;;;;;;;;;13.10;99.90;;;;;;5032142;28;19993;-77
2021/08/12 03:37:23;;;;;;;;;;;13.10;99.90;;;;;;5031337;28;19925;-77
2021/08/12 03:39:49;;;;;;;;;;;13.10;99.90;;;;;;5031662;28;19910;-77
2021/08/12 03:42:15;;;;;;;;;;;13.10;99.90;;;;;;5031802;28;19916;-77
2021/08/12 03:44:40;;;;;;;;;;;13.10;99.90;;;;;;5032201;28;20378;-77
2021/08/12 03:47:06;;;;;;;;;;;13.10;99.90;;;;;;5032548;28;19976;-77
2021/08/12 03:49:32;;;;;;;;;;;13.10;99.90;;;;;;5032802;28;19909;-77
2021/08/12 03:51:57;;;;;;;;;;;13.00;99.90;;;;;;5031909;28;19928;-77
2021/08/12 03:54:23;;;;;;;;;;;13.10;99.90;;;;;;5032147;28;20366;-77
2021/08/12 03:56:48;;;;;;;;;;;13.00;99.90;;;;;;5031198;28;19909;-77
2021/08/12 03:59:14;;;;;;;;;;;13.00;99.90;;;;;;5032280;28;20012;-77
2021/08/12 04:01:39;;;;;;;;;;;13.00;99.90;;;;;;5032723;28;19995;-77
2021/08/12 04:04:05;;;;;;;;;;;13.00;99.90;;;;;;5032374;28;20263;-77
2021/08/12 04:06:30;;;;;;;;;;;13.00;99.90;;;;;;5031300;28;19948;-77
2021/08/12 04:08:55;;;;;;;;;;;12.90;99.90;;;;;;5031386;28;20377;-77
2021/08/12 04:11:21;;;;;;;;;;;12.90;99.90;;;;;;5031447;28;19913;-77
2021/08/12 04:13:46;;;;;;;;;;;12.90;99.90;;;;;;5031854;28;20004;-77
2021/08/12 04:16:12;;;;;;;;;;;12.90;99.90;;;;;;5031195;28;19917;-77
2021/08/12 04:18:37;;;;;;;;;;;12.90;99.90;;;;;;5031459;28;19919;-77
2021/08/12 04:21:03;;;;;;;;;;;12.90;99.90;;;;;;5031258;28;19909;-77
2021/08/12 04:23:29;;;;;;;;;;;12.90;99.90;;;;;;5031446;28;19909;-77
2021/08/12 04:25:54;;;;;;;;;;;12.90;99.90;;;;;;5031323;28;19917;-77
2021/08/12 04:28:20;;;;;;;;;;;12.80;99.90;;;;;;5031171;28;19916;-77
2021/08/12 04:30:48;;;;;;;;;;;12.90;99.90;;;;;;5031186;28;19992;-77
2021/08/12 04:33:14;;;;;;;;;;;12.90;99.90;;;;;;5031662;28;20327;-77
2021/08/12 04:35:39;;;;;;;;;;;12.90;99.90;;;;;;5031331;28;19920;-77
2021/08/12 04:38:05;;;;;;;;;;;13.00;99.90;;;;;;5031141;28;19915;-77
2021/08/12 04:40:30;;;;;;;;;;;13.00;99.90;;;;;;5030865;28;19913;-77
2021/08/12 04:42:56;;;;;;;;;;;13.00;99.90;;;;;;5031265;28;19916;-77
2021/08/12 04:45:21;;;;;;;;;;;13.00;99.90;;;;;;5031347;28;19909;-77
2021/08/12 04:47:47;;;;;;;;;;;13.10;99.90;;;;;;5030869;28;19909;-77
2021/08/12 04:50:12;;;;;;;;;;;13.10;99.90;;;;;;5031054;28;20354;-77
2021/08/12 04:52:41;;;;;;;;;;;13.20;99.90;;;;;;5030937;28;19955;-77
2021/08/12 04:55:07;;;;;;;;;;;13.20;99.90;;;;;;5030647;28;19948;-77
2021/08/12 04:57:33;;;;;;;;;;;13.30;99.90;;;;;;5030582;28;19967;-77
2021/08/12 04:59:59;;;;;;;;;;;13.40;99.90;;;;;;5030997;28;19913;-77
2021/08/12 05:02:26;;;;;;;;;;;13.50;99.90;;;;;;5031065;28;19909;-77
2021/08/12 05:04:51;;;;;;;;;;;13.60;99.90;;;;;;5030947;28;19913;-77
2021/08/12 05:07:17;;;;;;;;;;;13.70;99.90;;;;;;5031046;28;19916;-77
2021/08/12 05:09:42;;;;;;;;;;;13.90;99.90;;;;;;5030588;28;20267;-77
2021/08/12 05:12:08;;;;;;;;;;;14.00;99.90;;;;;;5030889;28;19963;-76
2021/08/12 05:14:33;;;;;;;;;;;14.10;99.90;;;;;;5013118;28;20015;-77
2021/08/12 05:16:59;;;;;;;;;;;14.20;99.90;;;;;;5030594;28;19917;-76
2021/08/12 05:19:24;;;;;;;;;;;14.30;99.90;;;;;;5030657;28;20365;-77
2021/08/12 05:21:50;;;;;;;;;;;14.40;99.90;;;;;;5030916;28;20012;-77
2021/08/12 05:24:15;;;;;;;;;;;14.50;99.90;;;;;;5030684;28;19909;-76
2021/08/12 05:26:41;;;;;;;;;;;14.50;99.90;;;;;;5030613;28;20247;-77
2021/08/12 05:29:07;;;;;;;;;;;14.60;99.90;;;;;;5030776;28;20383;-77
2021/08/12 05:31:33;;;;;;;;;;;14.80;99.90;;;;;;5030692;28;19921;-77
2021/08/12 05:33:58;;;;;;;;;;;15.00;99.90;;;;;;5016037;28;20321;-77
2021/08/12 05:36:24;;;;;;;;;;;15.00;99.90;;;;;;5034298;28;19913;-77
2021/08/12 05:38:50;;;;;;;;;;;15.00;99.90;;;;;;5034080;28;19909;-77
2021/08/12 05:41:15;;;;;;;;;;;15.00;99.90;;;;;;5034585;28;19952;-77
2021/08/12 05:43:41;;;;;;;;;;;15.00;99.90;;;;;;5034573;28;19913;-76
2021/08/12 05:46:06;;;;;;;;;;;15.10;99.90;;;;;;5034178;28;19963;-77
2021/08/12 05:48:32;;;;;;;;;;;15.10;99.90;;;;;;5034715;28;19952;-77
2021/08/12 05:50:57;;;;;;;;;;;15.20;99.90;;;;;;5034307;28;20000;-76
2021/08/12 05:53:23;;;;;;;;;;;15.30;99.90;;;;;;5034175;28;20378;-77
2021/08/12 05:55:48;;;;;;;;;;;15.40;99.90;;;;;;5034214;28;19909;-76
2021/08/12 05:58:14;;;;;;;;;;;15.40;99.90;;;;;;5033944;28;19917;-77
2021/08/12 06:00:39;;;;;;;;;;;15.60;99.90;;;;;;5033537;28;20007;-77
2021/08/12 06:03:05;;;;;;;;;;;15.70;99.90;;;;;;5013461;28;19909;-77
2021/08/12 06:05:31;;;;;;;;;;;15.80;99.90;;;;;;5031021;28;19921;-76
2021/08/12 06:07:57;;;;;;;;;;;15.90;99.90;;;;;;5030355;28;19909;-77
2021/08/12 06:10:22;;;;;;;;;;;16.00;99.90;;;;;;5030753;28;19913;-77
2021/08/12 06:12:48;;;;;;;;;;;16.00;99.90;;;;;;5031025;28;20317;-76
2021/08/12 06:15:13;;;;;;;;;;;16.20;99.90;;;;;;5013051;28;20000;-77
2021/08/12 06:17:38;;;;;;;;;;;16.20;99.90;;;;;;5032738;28;19909;-76
2021/08/12 06:20:04;;;;;;;;;;;16.30;99.90;;;;;;5033826;28;19909;-76
2021/08/12 06:22:30;;;;;;;;;;;16.40;99.90;;;;;;5033605;28;19936;-76
2021/08/12 06:24:55;;;;;;;;;;;16.40;99.90;;;;;;5033736;28;19909;-77
2021/08/12 06:27:21;;;;;;;;;;;16.50;99.90;;;;;;5033398;28;19913;-77
2021/08/12 06:29:46;;;;;;;;;;;16.60;99.90;;;;;;5033536;28;19940;-77
2021/08/12 06:32:12;;;;;;;;;;;16.70;99.90;;;;;;5033640;28;19921;-77
2021/08/12 06:34:37;;;;;;;;;;;16.80;99.90;;;;;;5015809;28;19910;-78
2021/08/12 06:37:03;;;;;;;;;;;16.80;99.90;;;;;;5032935;28;19913;-77
2021/08/12 06:39:29;;;;;;;;;;;17.00;99.90;;;;;;5033182;28;19920;-77
2021/08/12 06:41:57;;;;;;;;;;;17.00;99.90;;;;;;5033002;28;20300;-77
2021/08/12 06:44:22;;;;;;;;;;;17.10;99.90;;;;;;5033515;28;19963;-78
2021/08/12 06:46:48;;;;;;;;;;;17.30;99.90;;;;;;5031520;28;19909;-77
2021/08/12 06:49:13;;;;;;;;;;;17.40;99.90;;;;;;5033294;28;20326;-77
2021/08/12 06:51:39;;;;;;;;;;;17.50;99.90;;;;;;5032986;28;19917;-77
2021/08/12 06:54:04;;;;;;;;;;;17.60;99.90;;;;;;5031866;28;20369;-78
2021/08/12 06:56:30;;;;;;;;;;;17.80;99.90;;;;;;5031452;28;19916;-78
2021/08/12 06:58:56;;;;;;;;;;;17.90;99.90;;;;;;5031683;28;20003;-78
2021/08/12 07:01:22;;;;;;;;;;;18.10;99.90;;;;;;5032845;28;20429;-77
2021/08/12 07:03:47;;;;;;;;;;;18.30;99.90;;;;;;5032887;28;19910;-78
2021/08/12 07:06:13;;;;;;;;;;;18.50;99.90;;;;;;5032559;28;20392;-77
2021/08/12 07:08:39;;;;;;;;;;;18.80;99.90;;;;;;5033172;28;19995;-78
2021/08/12 07:11:05;;;;;;;;;;;19.60;99.90;;;;;;5032913;28;19927;-76
2021/08/12 07:13:30;;;;;;;;;;;20.80;99.90;;;;;;5032794;28;19913;-76
2021/08/12 07:15:56;;;;;;;;;;;22.30;99.90;;;;;;5032602;28;19916;-76
2021/08/12 07:18:21;;;;;;;;;;;23.40;99.90;;;;;;5032337;28;20249;-76
2021/08/12 07:20:48;;;;;;;;;;;23.30;99.90;;;;;;5032428;28;19949;-76
2021/08/12 07:23:14;;;;;;;;;;;23.10;99.90;;;;;;5032527;28;19920;-76
2021/08/12 07:25:40;;;;;;;;;;;23.00;99.90;;;;;;5032449;28;19909;-78
2021/08/12 07:28:05;;;;;;;;;;;23.10;99.90;;;;;;5031974;28;19909;-76
2021/08/12 07:30:30;;;;;;;;;;;23.30;99.90;;;;;;5032088;28;19959;-77
2021/08/12 07:32:56;;;;;;;;;;;23.80;99.90;;;;;;5032401;28;20454;-76
2021/08/12 07:35:22;;;;;;;;;;;24.40;99.90;;;;;;5032401;28;19936;-76
2021/08/12 07:37:48;;;;;;;;;;;25.20;99.90;;;;;;5031547;28;19920;-77
2021/08/12 07:40:14;;;;;;;;;;;25.90;99.90;;;;;;5032169;28;19909;-77
2021/08/12 07:42:39;;;;;;;;;;;26.70;99.90;;;;;;5032204;28;19917;-76
2021/08/12 07:45:05;;;;;;;;;;;27.30;99.90;;;;;;5032151;28;20282;-76
2021/08/12 07:47:32;;;;;;;;;;;27.80;99.90;;;;;;5031883;28;20349;-77
2021/08/12 07:49:58;;;;;;;;;;;28.10;99.90;;;;;;5014113;28;19909;-77
2021/08/12 07:52:24;;;;;;;;;;;28.80;99.90;;;;;;5031994;28;20480;-77
2021/08/12 07:54:50;;;;;;;;;;;29.10;99.90;;;;;;5031971;28;19910;-78
2021/08/12 07:57:16;;;;;;;;;;;29.20;99.90;;;;;;5031066;28;19913;-77
2021/08/12 07:59:41;;;;;;;;;;;29.60;99.10;;;;;;5031741;28;19910;-79
2021/08/12 08:02:07;;;;;;;;;;;29.70;99.60;;;;;;5031685;28;19913;-78
2021/08/12 08:04:32;;;;;;;;;;;30.00;98.20;;;;;;5031736;28;20363;-78
2021/08/12 08:07:00;;;;;;;;;;;30.30;98.60;;;;;;5030937;28;19913;-79
2021/08/12 08:09:25;;;;;;;;;;;30.60;98.30;;;;;;5031449;28;19909;-78
2021/08/12 08:11:51;;;;;;;;;;;31.20;97.20;;;;;;5031495;28;19924;-78
2021/08/12 08:14:16;;;;;;;;;;;31.40;96.70;;;;;;5031598;28;19916;-78
2021/08/12 08:16:43;;;;;;;;;;;30.50;96.10;;;;;;5031140;28;19909;-78
2021/08/12 08:19:08;;;;;;;;;;;30.30;96.60;;;;;;5031438;28;19917;-78
2021/08/12 08:21:34;;;;;;;;;;;30.50;96.90;;;;;;5031370;28;19942;-79
2021/08/12 08:23:59;;;;;;;;;;;30.90;97.30;;;;;;5031767;28;20373;-78
2021/08/12 08:26:25;;;;;;;;;;;31.00;95.40;;;;;;5031552;28;19955;-78
2021/08/12 08:28:50;;;;;;;;;;;31.40;96.00;;;;;;5031421;28;19913;-79
2021/08/12 08:31:16;;;;;;;;;;;31.70;96.00;;;;;;5031230;28;19952;-78
2021/08/12 08:33:41;;;;;;;;;;;31.60;95.50;;;;;;5031429;28;20049;-78
2021/08/12 08:36:07;;;;;;;;;;;31.50;95.90;;;;;;5031071;28;19913;-78
2021/08/12 08:38:32;;;;;;;;;;;31.60;95.10;;;;;;5031116;28;19910;-79
2021/08/12 08:40:58;;;;;;;;;;;31.50;95.70;;;;;;5031115;28;19956;-79
2021/08/12 08:43:24;;;;;;;;;;;31.70;96.80;;;;;;5031420;28;19913;-79
2021/08/12 08:45:51;;;;;;;;;;;31.50;95.10;;;;;;5030927;28;20484;-78
2021/08/12 08:48:17;;;;;;;;;;;31.50;94.90;;;;;;5030713;28;19916;-79
2021/08/12 08:50:45;;;;;;;;;;;31.40;94.70;;;;;;5031189;28;20317;-78
2021/08/12 08:53:16;;;;;;;;;;;31.20;94.60;;;;;;5031266;28;19915;-79
2021/08/12 08:55:42;;;;;;;;;;;31.10;93.90;;;;;;5031358;28;19909;-76
2021/08/12 08:58:07;;;;;;;;;;;30.80;94.60;;;;;;5030853;28;19963;-76
2021/08/12 09:00:33;;;;;;;;;;;30.90;95.10;;;;;;5031076;28;19909;-77
2021/08/12 09:02:58;;;;;;;;;;;30.90;95.40;;;;;;5031022;28;19916;-76
2021/08/12 09:05:24;;;;;;;;;;;31.20;96.50;;;;;;5031158;28;19909;-79
2021/08/12 09:07:50;;;;;;;;;;;31.50;94.40;;;;;;5031485;28;19909;-79
2021/08/12 09:10:16;;;;;;;;;;;31.80;94.20;;;;;;5034830;28;19920;-79
2021/08/12 09:12:42;;;;;;;;;;;31.50;93.90;;;;;;5035245;28;20001;-79
2021/08/12 09:15:09;;;;;;;;;;;31.70;93.10;;;;;;5035104;28;20008;-79
2021/08/12 09:17:35;;;;;;;;;;;31.70;95.00;;;;;;5034476;28;19947;-78
2021/08/12 09:20:08;;;;;;;;;;;31.80;94.20;;;;;;5034673;28;20282;-79
2021/08/12 09:22:48;;;;;;;;;;;31.80;93.30;;;;;;5034813;28;19905;-79
2021/08/12 09:25:14;;;;;;;;;;;31.40;93.60;;;;;;5034805;28;19909;-79
2021/08/12 09:27:40;;;;;;;;;;;31.10;93.70;;;;;;5033429;28;20328;-79
2021/08/12 09:30:12;;;;;;;;;;;31.30;95.20;;;;;;5033906;28;19917;-79
2021/08/12 09:32:44;;;;;;;;;;;31.40;93.40;;;;;;5034798;28;19909;-79
2021/08/12 09:35:10;;;;;;;;;;;31.60;92.30;;;;;;5017124;28;20279;-80
2021/08/12 09:37:35;;;;;;;;;;;31.90;95.20;;;;;;5034456;28;19909;-79
2021/08/12 09:40:02;;;;;;;;;;;32.10;93.50;;;;;;5034554;28;19920;-79
2021/08/12 09:42:27;;;;;;;;;;;32.00;94.40;;;;;;5034242;28;20358;-79
2021/08/12 09:44:53;;;;;;;;;;;32.20;90.10;;;;;;5034369;28;19914;-79
2021/08/12 09:47:18;;;;;;;;;;;32.60;93.40;;;;;;5034072;28;20061;-79
2021/08/12 09:49:44;;;;;;;;;;;33.00;92.90;;;;;;5034966;28;19916;-79
2021/08/12 09:52:28;;;;;;;;;;;33.30;92.30;;;;;;5034139;28;19984;-79
2021/08/12 09:54:58;;;;;;;;;;;33.60;90.90;;;;;;5034304;28;19999;-79
2021/08/12 09:57:24;;;;;;;;;;;33.30;92.00;;;;;;5033791;28;19918;-79
2021/08/12 09:59:51;;;;;;;;;;;33.10;87.90;;;;;;5033969;28;19916;-79
2021/08/12 10:02:16;;;;;;;;;;;33.20;90.90;;;;;;5034309;28;19909;-80
2021/08/12 10:04:42;;;;;;;;;;;32.90;91.10;;;;;;5034163;28;20302;-79
2021/08/12 10:07:08;;;;;;;;;;;33.00;91.40;;;;;;5034038;28;19949;-79
2021/08/12 10:09:43;;;;;;;;;;;33.00;93.40;;;;;;5034265;28;20313;-79
2021/08/12 10:12:09;;;;;;;;;;;32.90;91.70;;;;;;5035625;28;19913;-79
2021/08/12 10:14:35;;;;;;;;;;;32.90;92.20;;;;;;5035990;28;20408;-79
2021/08/12 10:17:01;;;;;;;;;;;33.20;91.10;;;;;;5035514;28;19937;-79
2021/08/12 10:19:27;;;;;;;;;;;33.30;91.50;;;;;;5034675;28;19995;-80
2021/08/12 10:21:53;;;;;;;;;;;33.20;87.00;;;;;;5034139;28;19909;-79
2021/08/12 10:24:19;;;;;;;;;;;32.70;89.10;;;;;;5033773;28;20203;-79
2021/08/12 10:26:46;;;;;;;;;;;32.30;91.90;;;;;;5035493;28;19909;-79
2021/08/12 10:29:12;;;;;;;;;;;32.50;91.30;;;;;;5035637;28;20043;-79
2021/08/12 10:31:39;;;;;;;;;;;32.50;91.80;;;;;;5034998;28;19924;-80
2021/08/12 10:34:04;;;;;;;;;;;32.90;91.70;;;;;;5034889;28;19909;-79
2021/08/12 10:36:30;;;;;;;;;;;32.90;90.20;;;;;;5016403;28;20290;-79
2021/08/12 10:38:56;;;;;;;;;;;32.90;87.90;;;;;;5034568;28;19916;-79
2021/08/12 10:41:22;;;;;;;;;;;32.30;87.80;;;;;;5034428;28;19913;-80
2021/08/12 10:43:52;;;;;;;;;;;32.30;91.30;;;;;;5027410;28;20405;-79
2021/08/12 10:46:35;;;;;;;;;;;32.80;86.70;;;;;;5036386;28;19975;-79
2021/08/12 10:49:19;;;;;;;;;;;33.00;89.60;;;;;;5036508;28;20313;-80
2021/08/12 10:52:11;;;;;;;;;;;33.20;86.80;;;;;;5037427;28;19975;-80
2021/08/12 10:54:39;;;;;;;;;;;33.40;88.50;;;;;;5033454;28;19910;-79
2021/08/12 10:57:21;;;;;;;;;;;33.10;89.50;;;;;;5035796;28;19917;-77
2021/08/12 10:59:47;;;;;;;;;;;32.40;86.60;;;;;;5032870;28;20019;-77
2021/08/12 11:02:28;;;;;;;;;;;31.90;90.70;;;;;;5032862;28;19909;-77
2021/08/12 11:04:54;;;;;;;;;;;32.30;91.90;;;;;;5034211;28;19910;-80
2021/08/12 11:07:35;;;;;;;;;;;32.60;91.60;;;;;;5037071;28;19964;-81
2021/08/12 11:10:01;;;;;;;;;;;32.70;87.00;;;;;;5035761;28;19910;-80
2021/08/12 11:12:45;;;;;;;;;;;32.60;91.20;;;;;;5019049;28;19913;-80
2021/08/12 11:15:10;;;;;;;;;;;32.80;90.30;;;;;;5037881;28;19954;-80
2021/08/12 11:17:53;;;;;;;;;;;33.00;91.30;;;;;;5036341;28;19913;-79
2021/08/12 11:20:35;;;;;;;;;;;32.70;84.00;;;;;;5036216;28;19916;-79
2021/08/12 11:23:19;;;;;;;;;;;32.20;88.40;;;;;;5036878;28;19909;-80
2021/08/12 11:25:57;;;;;;;;;;;32.00;90.20;;;;;;5036552;28;19915;-80
2021/08/12 11:28:41;;;;;;;;;;;31.90;90.20;;;;;;5033010;28;19917;-78
2021/08/12 11:31:07;;;;;;;;;;;32.20;92.10;;;;;;5031217;28;20314;-77
2021/08/12 11:33:33;;;;;;;;;;;32.80;90.60;;;;;;5032365;28;19992;-77
2021/08/12 11:36:16;;;;;;;;;;;32.90;83.80;;;;;;5032199;28;19910;-78
2021/08/12 11:38:43;;;;;;;;;;;32.70;90.00;;;;;;5032296;28;19909;-77
2021/08/12 11:41:09;;;;;;;;;;;32.50;88.30;;;;;;5032299;28;19909;-77
2021/08/12 11:43:36;;;;;;;;;;;32.60;87.00;;;;;;5031909;28;20017;-78
2021/08/12 11:46:02;;;;;;;;;;;32.80;89.40;;;;;;5031823;28;19919;-78
2021/08/12 11:48:31;;;;;;;;;;;33.00;83.60;;;;;;5014485;28;20274;-77
2021/08/12 11:51:00;;;;;;;;;;;32.90;84.00;;;;;;5014172;28;19913;-77
2021/08/12 11:53:42;;;;;;;;;;;32.70;88.70;;;;;;5032108;28;19909;-77
2021/08/12 11:56:09;;;;;;;;;;;32.60;87.60;;;;;;5031835;28;20290;-78
2021/08/12 11:58:34;;;;;;;;;;;32.60;89.10;;;;;;5032024;28;20026;-77
2021/08/12 12:01:10;;;;;;;;;;;32.60;88.40;;;;;;5031983;28;19945;-77
2021/08/12 12:03:36;;;;;;;;;;;32.70;85.30;;;;;;5031881;28;20370;-78
2021/08/12 12:06:01;;;;;;;;;;;32.50;86.20;;;;;;5031397;28;19920;-78
2021/08/12 12:08:27;;;;;;;;;;;32.90;89.70;;;;;;5031540;28;20188;-77
2021/08/12 12:10:52;;;;;;;;;;;33.10;85.90;;;;;;5031530;28;19928;-77
2021/08/12 12:13:19;;;;;;;;;;;33.20;81.00;;;;;;5031419;28;19983;-78
2021/08/12 12:15:45;;;;;;;;;;;33.50;79.00;;;;;;5031747;28;19951;-77
2021/08/12 12:18:12;;;;;;;;;;;33.70;78.30;;;;;;5031335;28;20007;-77
2021/08/12 12:20:39;;;;;;;;;;;33.80;80.00;;;;;;5013880;28;19951;-78
2021/08/12 12:23:06;;;;;;;;;;;34.20;84.90;;;;;;5031409;28;19909;-77
2021/08/12 12:25:33;;;;;;;;;;;34.40;79.20;;;;;;5031395;28;19920;-78
2021/08/12 12:27:59;;;;;;;;;;;34.30;81.20;;;;;;5031115;28;20394;-78
2021/08/12 12:30:25;;;;;;;;;;;34.40;78.00;;;;;;5031125;28;19959;-78
2021/08/12 12:32:57;;;;;;;;;;;34.20;77.50;;;;;;5031464;28;19913;-78
2021/08/12 12:35:23;;;;;;;;;;;34.30;82.50;;;;;;5033659;28;19931;-80
2021/08/12 12:37:49;;;;;;;;;;;34.20;82.10;;;;;;5036230;28;19909;-80
2021/08/12 12:40:18;;;;;;;;;;;34.50;79.40;;;;;;5037805;28;19909;-81
2021/08/12 12:42:44;;;;;;;;;;;34.40;76.70;;;;;;5036242;28;19909;-79
2021/08/12 12:45:10;;;;;;;;;;;34.40;79.10;;;;;;5036328;28;19910;-80
2021/08/12 12:47:37;;;;;;;;;;;34.50;75.60;;;;;;5034723;28;19909;-79
2021/08/12 12:50:06;;;;;;;;;;;34.60;72.20;;;;;;5017493;28;19909;-81
2021/08/12 12:52:32;;;;;;;;;;;34.70;73.30;;;;;;5036153;28;19963;-79
2021/08/12 12:54:58;;;;;;;;;;;34.70;73.40;;;;;;5036035;28;20321;-80
2021/08/12 12:57:33;;;;;;;;;;;34.70;73.90;;;;;;5030770;28;19909;-79
2021/08/12 12:59:59;;;;;;;;;;;34.90;78.90;;;;;;5031304;28;19943;-79
2021/08/12 13:02:25;;;;;;;;;;;35.00;77.10;;;;;;5031116;28;20302;-79
2021/08/12 13:04:57;;;;;;;;;;;35.20;72.00;;;;;;5030874;28;19916;-78
2021/08/12 13:07:23;;;;;;;;;;;35.20;74.90;;;;;;5030677;28;19956;-79
2021/08/12 13:09:48;;;;;;;;;;;35.20;74.10;;;;;;5031268;28;19909;-77
2021/08/12 13:12:24;;;;;;;;;;;35.10;70.80;;;;;;5030597;28;20324;-77
2021/08/12 13:14:49;;;;;;;;;;;34.70;71.50;;;;;;5013184;28;19909;-78
2021/08/12 13:17:30;;;;;;;;;;;34.60;73.40;;;;;;5032833;28;19916;-78
2021/08/12 13:20:11;;;;;;;;;;;34.70;69.60;;;;;;5032022;28;19909;-78
2021/08/12 13:22:44;;;;;;;;;;;34.80;70.30;;;;;;5030979;28;20080;-78
2021/08/12 13:25:14;;;;;;;;;;;34.80;68.70;;;;;;5030694;28;20397;-78
2021/08/12 13:27:41;;;;;;;;;;;34.80;70.20;;;;;;5012621;28;19947;-78
2021/08/12 13:30:07;;;;;;;;;;;34.60;74.50;;;;;;5030643;28;19913;-78
2021/08/12 13:32:32;;;;;;;;;;;33.90;75.00;;;;;;5031355;28;19913;-78
2021/08/12 13:34:59;;;;;;;;;;;33.80;77.70;;;;;;5031022;28;19955;-79
2021/08/12 13:37:24;;;;;;;;;;;33.70;77.70;;;;;;5030356;28;19909;-78
2021/08/12 13:39:50;;;;;;;;;;;33.80;77.00;;;;;;5030785;28;20306;-79
2021/08/12 13:42:15;;;;;;;;;;;33.80;77.10;;;;;;5030362;28;19910;-78
2021/08/12 13:44:41;;;;;;;;;;;34.10;77.30;;;;;;5030625;28;20297;-78
2021/08/12 13:47:07;;;;;;;;;;;34.10;79.70;;;;;;5030268;28;19909;-79
2021/08/12 13:49:33;;;;;;;;;;;33.70;75.90;;;;;;5030559;28;20003;-78
2021/08/12 13:51:59;;;;;;;;;;;33.60;80.60;;;;;;5030443;28;19928;-78
2021/08/12 13:54:25;;;;;;;;;;;33.70;75.90;;;;;;5032492;28;20318;-78
2021/08/12 13:56:51;;;;;;;;;;;33.60;76.80;;;;;;5016012;28;20116;-78
2021/08/12 13:59:17;;;;;;;;;;;33.60;75.50;;;;;;5034178;28;19935;-79
2021/08/12 14:01:42;;;;;;;;;;;33.70;76.60;;;;;;5034044;28;19909;-79
2021/08/12 14:04:08;;;;;;;;;;;33.70;79.10;;;;;;5034159;28;19924;-79
2021/08/12 14:06:35;;;;;;;;;;;33.60;75.80;;;;;;5033540;28;20337;-79
2021/08/12 14:09:04;;;;;;;;;;;33.70;76.30;;;;;;5033993;28;19955;-79
2021/08/12 14:11:29;;;;;;;;;;;34.00;75.00;;;;;;5035260;28;19924;-79
2021/08/12 14:13:55;;;;;;;;;;;34.40;74.20;;;;;;5033866;28;19909;-81
2021/08/12 14:16:22;;;;;;;;;;;34.40;72.90;;;;;;5040798;28;19981;-79